createdAt,value
2023-05-05T00:00:21.122Z,12.05
2023-05-05T00:01:21.117Z,12.05
2023-05-05T00:02:21.189Z,12.07
2023-05-05T00:03:21.145Z,12.09
2023-05-05T00:04:21.072Z,12.09
2023-05-05T00:05:21.145Z,12.09
2023-05-05T00:06:21.051Z,12.12
2023-05-05T00:07:21.066Z,12.14
2023-05-05T00:08:21.040Z,12.17
2023-05-05T00:09:21.027Z,12.17
2023-05-05T00:10:20.992Z,12.20
2023-05-05T00:11:21.036Z,12.21
2023-05-05T00:12:21.006Z,12.20
2023-05-05T00:13:21.022Z,12.21
2023-05-05T00:14:20.929Z,12.21
2023-05-05T00:15:20.970Z,12.23
2023-05-05T00:16:20.983Z,12.23
2023-05-05T00:17:20.931Z,12.27
2023-05-05T00:18:20.917Z,12.23
2023-05-05T00:19:20.914Z,12.27
2023-05-05T00:20:20.858Z,12.24
2023-05-05T00:21:20.894Z,12.24
2023-05-05T00:22:20.867Z,12.24
2023-05-05T00:23:20.946Z,12.27
2023-05-05T00:24:20.812Z,12.27
2023-05-05T00:25:20.855Z,12.29
2023-05-05T00:26:20.902Z,12.29
2023-05-05T00:27:20.842Z,12.31
2023-05-05T00:28:20.808Z,12.32
2023-05-05T00:29:20.833Z,12.32
2023-05-05T00:30:20.798Z,12.34
2023-05-05T00:31:20.796Z,12.35
2023-05-05T00:32:20.815Z,12.35
2023-05-05T00:33:20.750Z,12.34
2023-05-05T00:34:20.735Z,12.34
2023-05-05T00:35:20.725Z,12.35
2023-05-05T00:36:20.723Z,12.34
2023-05-05T00:37:20.697Z,12.34
2023-05-05T00:38:20.956Z,12.32
2023-05-05T00:39:20.677Z,12.32
2023-05-05T00:40:20.642Z,12.31
2023-05-05T00:41:20.735Z,12.34
2023-05-05T00:42:20.643Z,12.34
2023-05-05T00:43:20.651Z,12.32
2023-05-05T00:44:20.621Z,12.34
2023-05-05T00:45:20.719Z,12.35
2023-05-05T00:46:20.599Z,12.31
2023-05-05T00:47:20.583Z,12.32
2023-05-05T00:48:20.560Z,12.32
2023-05-05T00:49:20.587Z,12.31
2023-05-05T00:50:20.629Z,12.31
2023-05-05T00:51:20.561Z,12.29
2023-05-05T00:52:20.566Z,12.29
2023-05-05T00:53:20.547Z,12.32
2023-05-05T00:54:20.562Z,12.31
2023-05-05T00:55:20.510Z,12.29
2023-05-05T00:56:20.483Z,12.31
2023-05-05T00:57:20.525Z,12.31
2023-05-05T00:58:20.686Z,12.31
2023-05-05T00:59:20.466Z,12.28
2023-05-05T01:00:20.419Z,12.28
2023-05-05T01:01:20.531Z,12.28
2023-05-05T01:02:20.412Z,12.27
2023-05-05T01:03:20.483Z,12.27
2023-05-05T01:04:20.387Z,12.27
2023-05-05T01:05:20.483Z,12.24
2023-05-05T01:06:20.373Z,12.24
2023-05-05T01:07:20.374Z,12.23
2023-05-05T01:08:20.335Z,12.23
2023-05-05T01:09:20.358Z,12.21
2023-05-05T01:10:20.997Z,12.20
2023-05-05T01:11:20.310Z,12.19
2023-05-05T01:12:20.361Z,12.16
2023-05-05T01:13:20.369Z,12.14
2023-05-05T01:14:20.304Z,12.12
2023-05-05T01:15:20.273Z,12.10
2023-05-05T01:16:20.350Z,12.07
2023-05-05T01:17:20.269Z,12.02
2023-05-05T01:18:20.610Z,11.99
2023-05-05T01:19:20.942Z,11.95
2023-05-05T01:20:20.193Z,11.91
2023-05-05T01:21:20.210Z,11.86
2023-05-05T01:22:20.224Z,11.82
2023-05-05T01:23:20.248Z,11.79
2023-05-05T01:24:20.186Z,11.73
2023-05-05T01:25:20.319Z,11.67
2023-05-05T01:26:20.147Z,11.64
2023-05-05T01:27:20.156Z,11.61
2023-05-05T01:28:20.117Z,11.60
2023-05-05T01:29:20.154Z,11.58
2023-05-05T01:30:20.144Z,11.55
2023-05-05T01:31:20.100Z,11.52
2023-05-05T01:32:20.056Z,11.51
2023-05-05T01:33:20.085Z,11.47
2023-05-05T01:34:20.085Z,11.46
2023-05-05T01:35:20.050Z,11.42
2023-05-05T01:36:20.020Z,11.43
2023-05-05T01:37:20.057Z,11.42
2023-05-05T01:38:20.035Z,11.42
2023-05-05T01:39:20.471Z,11.42
2023-05-05T01:40:20.681Z,11.39
2023-05-05T01:41:19.965Z,11.40
2023-05-05T01:42:20.082Z,11.39
2023-05-05T01:43:19.980Z,11.37
2023-05-05T01:44:19.932Z,11.36
2023-05-05T01:45:19.954Z,11.35
2023-05-05T01:46:20.138Z,11.35
2023-05-05T01:47:19.945Z,11.32
2023-05-05T01:48:19.903Z,11.33
2023-05-05T01:49:19.941Z,11.33
2023-05-05T01:50:19.881Z,11.33
2023-05-05T01:51:19.852Z,11.35
2023-05-05T01:52:19.852Z,11.32
2023-05-05T01:53:19.877Z,11.32
2023-05-05T01:54:19.829Z,11.29
2023-05-05T01:55:19.810Z,11.29
2023-05-05T01:56:19.935Z,11.28
2023-05-05T01:57:19.756Z,11.29
2023-05-05T01:58:19.791Z,11.28
2023-05-05T01:59:20.603Z,11.28
2023-05-05T02:00:20.214Z,11.29
2023-05-05T02:01:19.811Z,11.25
2023-05-05T02:02:19.749Z,11.25
2023-05-05T02:03:19.992Z,11.25
2023-05-05T02:04:19.751Z,11.24
2023-05-05T02:05:19.718Z,11.21
2023-05-05T02:06:19.701Z,11.21
2023-05-05T02:07:19.772Z,11.18
2023-05-05T02:08:19.676Z,11.15
2023-05-05T02:09:19.620Z,11.14
2023-05-05T02:10:19.626Z,11.11
2023-05-05T02:11:19.620Z,11.09
2023-05-05T02:12:19.622Z,11.06
2023-05-05T02:13:19.648Z,11.06
2023-05-05T02:14:19.646Z,11.03
2023-05-05T02:15:19.571Z,10.99
2023-05-05T02:16:19.621Z,10.97
2023-05-05T02:17:19.533Z,10.94
2023-05-05T02:18:19.643Z,10.91
2023-05-05T02:19:19.550Z,10.89
2023-05-05T02:20:19.542Z,10.86
2023-05-05T02:21:19.506Z,10.84
2023-05-05T02:22:19.635Z,10.81
2023-05-05T02:23:19.479Z,10.81
2023-05-05T02:24:19.480Z,10.79
2023-05-05T02:25:19.454Z,10.81
2023-05-05T02:26:19.525Z,10.79
2023-05-05T02:27:19.436Z,10.82
2023-05-05T02:28:19.494Z,10.84
2023-05-05T02:29:19.442Z,10.85
2023-05-05T02:30:19.437Z,10.88
2023-05-05T02:31:19.476Z,10.88
2023-05-05T02:32:19.490Z,10.89
2023-05-05T02:33:19.373Z,10.91
2023-05-05T02:34:19.359Z,10.91
2023-05-05T02:35:19.365Z,10.91
2023-05-05T02:36:19.330Z,10.89
2023-05-05T02:37:19.318Z,10.88
2023-05-05T02:38:19.327Z,10.86
2023-05-05T02:39:19.402Z,10.86
2023-05-05T02:40:19.453Z,10.84
2023-05-05T02:41:19.465Z,10.79
2023-05-05T02:42:19.370Z,10.78
2023-05-05T02:43:19.429Z,10.76
2023-05-05T02:44:19.487Z,10.73
2023-05-05T02:45:19.487Z,10.70
2023-05-05T02:46:19.741Z,10.67
2023-05-05T02:47:19.288Z,10.64
2023-05-05T02:48:19.202Z,10.63
2023-05-05T02:49:19.191Z,10.60
2023-05-05T02:50:19.272Z,10.56
2023-05-05T02:51:19.215Z,10.51
2023-05-05T02:52:19.342Z,10.48
2023-05-05T02:53:19.155Z,10.47
2023-05-05T02:54:19.144Z,10.45
2023-05-05T02:55:19.098Z,10.45
2023-05-05T02:56:19.102Z,10.44
2023-05-05T02:57:19.121Z,10.44
2023-05-05T02:58:19.117Z,10.42
2023-05-05T02:59:19.069Z,10.38
2023-05-05T03:00:19.177Z,10.38
2023-05-05T03:01:19.420Z,10.36
2023-05-05T03:02:19.042Z,10.33
2023-05-05T03:03:19.226Z,10.32
2023-05-05T03:04:19.032Z,10.29
2023-05-05T03:05:18.992Z,10.26
2023-05-05T03:06:19.028Z,10.25
2023-05-05T03:07:18.965Z,10.22
2023-05-05T03:08:19.676Z,10.17
2023-05-05T03:09:19.043Z,10.14
2023-05-05T03:10:18.957Z,10.12
2023-05-05T03:11:18.912Z,10.09
2023-05-05T03:12:18.948Z,10.07
2023-05-05T03:13:18.899Z,10.05
2023-05-05T03:14:19.042Z,10.02
2023-05-05T03:15:18.860Z,10.01
2023-05-05T03:16:18.906Z,10.01
2023-05-05T03:17:18.949Z,9.99
2023-05-05T03:18:18.872Z,9.96
2023-05-05T03:19:18.831Z,9.96
2023-05-05T03:20:18.826Z,9.96
2023-05-05T03:21:19.001Z,9.91
2023-05-05T03:22:18.926Z,9.90
2023-05-05T03:23:18.877Z,9.89
2023-05-05T03:24:18.887Z,9.86
2023-05-05T03:25:18.790Z,9.84
2023-05-05T03:26:18.794Z,9.83
2023-05-05T03:27:18.753Z,9.81
2023-05-05T03:28:18.776Z,9.79
2023-05-05T03:29:18.740Z,9.78
2023-05-05T03:30:19.676Z,9.74
2023-05-05T03:31:18.756Z,9.74
2023-05-05T03:32:18.714Z,9.72
2023-05-05T03:33:18.714Z,9.72
2023-05-05T03:34:18.728Z,9.69
2023-05-05T03:35:18.658Z,9.68
2023-05-05T03:36:18.930Z,9.66
2023-05-05T03:37:19.615Z,9.65
2023-05-05T03:38:18.629Z,9.64
2023-05-05T03:39:18.593Z,9.61
2023-05-05T03:40:18.611Z,9.61
2023-05-05T03:41:18.730Z,9.57
2023-05-05T03:42:19.179Z,9.57
2023-05-05T03:43:18.557Z,9.56
2023-05-05T03:44:18.563Z,9.56
2023-05-05T03:45:18.559Z,9.53
2023-05-05T03:46:18.739Z,9.54
2023-05-05T03:47:18.521Z,9.53
2023-05-05T03:48:18.501Z,9.50
2023-05-05T03:49:18.497Z,9.50
2023-05-05T03:50:18.514Z,9.50
2023-05-05T03:51:18.520Z,9.48
2023-05-05T03:52:18.548Z,9.47
2023-05-05T03:53:18.436Z,9.47
2023-05-05T03:54:18.472Z,9.43
2023-05-05T03:55:18.447Z,9.46
2023-05-05T03:56:18.450Z,9.43
2023-05-05T03:57:18.435Z,9.42
2023-05-05T03:58:18.419Z,9.40
2023-05-05T03:59:18.364Z,9.36
2023-05-05T04:00:18.466Z,9.38
2023-05-05T04:01:18.345Z,9.39
2023-05-05T04:02:19.024Z,9.38
2023-05-05T04:03:18.492Z,9.40
2023-05-05T04:04:19.105Z,9.40
2023-05-05T04:05:18.305Z,9.40
2023-05-05T04:06:18.313Z,9.42
2023-05-05T04:07:18.397Z,9.42
2023-05-05T04:08:18.281Z,9.38
2023-05-05T04:09:18.260Z,9.38
2023-05-05T04:10:18.301Z,9.36
2023-05-05T04:11:18.266Z,9.38
2023-05-05T04:12:18.272Z,9.38
2023-05-05T04:13:18.286Z,9.38
2023-05-05T04:14:18.323Z,9.39
2023-05-05T04:15:18.221Z,9.40
2023-05-05T04:16:18.256Z,9.40
2023-05-05T04:17:18.232Z,9.43
2023-05-05T04:18:18.295Z,9.46
2023-05-05T04:19:18.145Z,9.50
2023-05-05T04:20:18.214Z,9.53
2023-05-05T04:21:18.166Z,9.53
2023-05-05T04:22:18.809Z,9.51
2023-05-05T04:23:18.223Z,9.56
2023-05-05T04:24:18.119Z,9.60
2023-05-05T04:25:18.099Z,9.58
2023-05-05T04:26:18.147Z,9.64
2023-05-05T04:27:18.151Z,9.65
2023-05-05T04:28:19.572Z,9.68
2023-05-05T04:29:18.052Z,9.69
2023-05-05T04:30:18.074Z,9.69
2023-05-05T04:31:18.189Z,9.72
2023-05-05T04:32:18.120Z,9.75
2023-05-05T04:33:18.041Z,9.78
2023-05-05T04:34:18.094Z,9.81
2023-05-05T04:35:17.976Z,9.84
2023-05-05T04:36:17.991Z,9.86
2023-05-05T04:37:18.053Z,9.87
2023-05-05T04:38:18.007Z,9.87
2023-05-05T04:39:17.943Z,9.91
2023-05-05T04:40:17.973Z,9.93
2023-05-05T04:41:18.004Z,9.96
2023-05-05T04:42:17.952Z,9.97
2023-05-05T04:43:17.955Z,9.99
2023-05-05T04:44:17.874Z,9.96
2023-05-05T04:45:17.972Z,9.96
2023-05-05T04:46:17.923Z,9.99
2023-05-05T04:47:17.924Z,9.99
2023-05-05T04:48:17.885Z,9.99
2023-05-05T04:49:17.906Z,10.01
2023-05-05T04:50:17.831Z,9.99
2023-05-05T04:51:17.835Z,10.01
2023-05-05T04:52:17.885Z,10.01
2023-05-05T04:53:17.756Z,10.02
2023-05-05T04:54:17.813Z,10.07
2023-05-05T04:55:17.768Z,10.08
2023-05-05T04:56:17.782Z,10.12
2023-05-05T04:57:17.746Z,10.14
2023-05-05T04:58:17.759Z,10.17
2023-05-05T04:59:17.737Z,10.18
2023-05-05T05:00:17.804Z,10.22
2023-05-05T05:01:17.720Z,10.25
2023-05-05T05:02:17.764Z,10.27
2023-05-05T05:03:17.948Z,10.30
2023-05-05T05:04:17.798Z,10.36
2023-05-05T05:05:17.699Z,10.41
2023-05-05T05:06:17.671Z,10.47
2023-05-05T05:07:17.635Z,10.55
2023-05-05T05:08:17.634Z,10.63
2023-05-05T05:09:17.614Z,10.71
2023-05-05T05:10:17.621Z,10.78
2023-05-05T05:11:17.647Z,10.84
2023-05-05T05:12:17.557Z,10.92
2023-05-05T05:13:17.879Z,11.00
2023-05-05T05:14:17.581Z,11.09
2023-05-05T05:15:17.666Z,11.18
2023-05-05T05:16:17.733Z,11.28
2023-05-05T05:17:17.556Z,11.35
2023-05-05T05:18:17.531Z,11.37
2023-05-05T05:19:17.623Z,11.44
2023-05-05T05:20:17.561Z,11.55
2023-05-05T05:21:17.609Z,11.64
2023-05-05T05:22:17.629Z,11.72
2023-05-05T05:23:17.463Z,11.79
2023-05-05T05:24:17.440Z,11.85
2023-05-05T05:25:17.457Z,11.88
2023-05-05T05:26:17.444Z,11.94
2023-05-05T05:27:17.402Z,11.99
2023-05-05T05:28:17.432Z,12.05
2023-05-05T05:29:17.398Z,12.13
2023-05-05T05:30:17.667Z,12.17
2023-05-05T05:31:17.443Z,12.19
2023-05-05T05:32:17.865Z,12.27
2023-05-05T05:33:17.298Z,12.34
2023-05-05T05:34:17.337Z,12.38
2023-05-05T05:35:17.347Z,12.47
2023-05-05T05:36:17.318Z,12.53
2023-05-05T05:37:17.338Z,12.60
2023-05-05T05:38:17.484Z,12.68
2023-05-05T05:39:17.222Z,12.74
2023-05-05T05:40:17.259Z,12.85
2023-05-05T05:41:17.200Z,12.93
2023-05-05T05:42:17.211Z,12.97
2023-05-05T05:43:17.491Z,13.07
2023-05-05T05:44:17.653Z,13.14
2023-05-05T05:45:17.661Z,13.26
2023-05-05T05:46:17.231Z,13.32
2023-05-05T05:47:17.192Z,13.42
2023-05-05T05:48:17.814Z,13.48
2023-05-05T05:49:17.183Z,13.55
2023-05-05T05:50:17.152Z,13.64
2023-05-05T05:51:17.104Z,13.71
2023-05-05T05:52:17.135Z,13.79
2023-05-05T05:53:17.612Z,13.84
2023-05-05T05:54:17.122Z,13.88
2023-05-05T05:55:17.102Z,13.95
2023-05-05T05:56:17.050Z,13.99
2023-05-05T05:57:17.057Z,14.02
2023-05-05T05:58:17.024Z,14.09
2023-05-05T05:59:17.088Z,14.12
2023-05-05T06:00:17.036Z,14.15
2023-05-05T06:01:17.022Z,14.18
2023-05-05T06:02:16.980Z,14.22
2023-05-05T06:03:17.215Z,14.28
2023-05-05T06:04:17.262Z,14.35
2023-05-05T06:05:17.003Z,14.42
2023-05-05T06:06:16.961Z,14.50
2023-05-05T06:07:16.972Z,14.57
2023-05-05T06:08:16.920Z,14.62
2023-05-05T06:09:16.888Z,14.68
2023-05-05T06:10:27.233Z,14.73
2023-05-05T06:11:18.172Z,14.80
2023-05-05T06:12:16.842Z,14.86
2023-05-05T06:13:16.986Z,14.95
2023-05-05T06:14:18.182Z,15.03
2023-05-05T06:15:16.873Z,15.11
2023-05-05T06:16:16.856Z,15.19
2023-05-05T06:17:16.825Z,15.27
2023-05-05T06:18:16.834Z,15.31
2023-05-05T06:19:16.801Z,15.41
2023-05-05T06:20:16.790Z,15.50
2023-05-05T06:21:16.823Z,15.60
2023-05-05T06:22:16.738Z,15.69
2023-05-05T06:23:16.756Z,15.80
2023-05-05T06:24:16.750Z,15.89
2023-05-05T06:25:17.422Z,16.02
2023-05-05T06:26:16.740Z,16.12
2023-05-05T06:27:16.755Z,16.27
2023-05-05T06:28:16.728Z,16.38
2023-05-05T06:29:16.713Z,16.48
2023-05-05T06:30:16.646Z,16.58
2023-05-05T06:31:18.223Z,16.67
2023-05-05T06:32:16.676Z,16.79
2023-05-05T06:33:16.696Z,16.93
2023-05-05T06:34:16.585Z,17.01
2023-05-05T06:35:16.876Z,17.12
2023-05-05T06:36:16.656Z,17.21
2023-05-05T06:37:16.614Z,17.30
2023-05-05T06:38:16.631Z,17.36
2023-05-05T06:39:16.623Z,17.43
2023-05-05T06:40:16.529Z,17.49
2023-05-05T06:41:16.846Z,17.55
2023-05-05T06:42:16.847Z,17.59
2023-05-05T06:43:16.944Z,17.66
2023-05-05T06:44:16.577Z,17.71
2023-05-05T06:45:16.996Z,17.78
2023-05-05T06:46:16.936Z,17.84
2023-05-05T06:47:16.483Z,17.93
2023-05-05T06:48:16.471Z,17.99
2023-05-05T06:49:16.471Z,18.03
2023-05-05T06:50:16.418Z,18.11
2023-05-05T06:51:16.424Z,18.18
2023-05-05T06:52:16.399Z,18.26
2023-05-05T06:53:16.449Z,18.30
2023-05-05T06:54:16.505Z,18.37
2023-05-05T06:55:16.518Z,18.42
2023-05-05T06:56:16.345Z,18.47
2023-05-05T06:57:16.354Z,18.50
2023-05-05T06:58:16.355Z,18.52
2023-05-05T06:59:16.326Z,18.55
2023-05-05T07:00:16.536Z,18.58
2023-05-05T07:01:16.385Z,18.63
2023-05-05T07:02:16.303Z,18.65
2023-05-05T07:03:16.397Z,18.67
2023-05-05T07:04:16.361Z,18.72
2023-05-05T07:05:16.295Z,18.78
2023-05-05T07:06:16.273Z,18.81
2023-05-05T07:07:16.244Z,18.81
2023-05-05T07:08:16.213Z,18.84
2023-05-05T07:09:17.079Z,18.87
2023-05-05T07:10:16.186Z,18.87
2023-05-05T07:11:16.528Z,18.90
2023-05-05T07:12:16.170Z,18.92
2023-05-05T07:13:16.255Z,18.94
2023-05-05T07:14:16.148Z,18.98
2023-05-05T07:15:26.756Z,19.00
2023-05-05T07:16:17.199Z,19.00
2023-05-05T07:17:16.138Z,19.00
2023-05-05T07:18:16.125Z,19.08
2023-05-05T07:19:16.153Z,19.08
2023-05-05T07:20:16.098Z,19.11
2023-05-05T07:21:16.125Z,19.11
2023-05-05T07:22:16.051Z,19.06
2023-05-05T07:23:16.220Z,18.82
2023-05-05T07:24:16.056Z,18.69
2023-05-05T07:25:16.124Z,18.58
2023-05-05T07:26:16.263Z,18.51
2023-05-05T07:27:16.280Z,18.54
2023-05-05T07:28:16.340Z,18.62
2023-05-05T07:29:16.042Z,18.70
2023-05-05T07:30:18.479Z,18.81
2023-05-05T07:31:15.971Z,18.91
2023-05-05T07:32:16.030Z,19.02
2023-05-05T07:33:15.971Z,19.11
2023-05-05T07:34:15.949Z,19.22
2023-05-05T07:35:15.937Z,19.31
2023-05-05T07:36:15.960Z,19.40
2023-05-05T07:37:15.911Z,19.39
2023-05-05T07:38:15.930Z,19.46
2023-05-05T07:39:15.934Z,19.46
2023-05-05T07:40:15.884Z,19.47
2023-05-05T07:41:15.897Z,19.47
2023-05-05T07:42:15.843Z,19.55
2023-05-05T07:43:15.897Z,19.65
2023-05-05T07:44:15.852Z,19.76
2023-05-05T07:45:15.842Z,19.83
2023-05-05T07:46:15.877Z,19.77
2023-05-05T07:47:15.892Z,19.83
2023-05-05T07:48:15.771Z,19.84
2023-05-05T07:49:15.758Z,19.84
2023-05-05T07:50:15.771Z,19.78
2023-05-05T07:51:15.744Z,19.66
2023-05-05T07:52:15.711Z,19.58
2023-05-05T07:53:15.735Z,19.62
2023-05-05T07:54:15.678Z,19.66
2023-05-05T07:55:15.710Z,19.81
2023-05-05T07:56:15.715Z,19.98
2023-05-05T07:57:15.699Z,20.01
2023-05-05T07:58:15.641Z,20.11
2023-05-05T07:59:15.663Z,20.23
2023-05-05T08:00:15.708Z,20.33
2023-05-05T08:01:15.653Z,20.38
2023-05-05T08:02:15.610Z,20.39
2023-05-05T08:03:15.672Z,20.43
2023-05-05T08:04:15.756Z,20.51
2023-05-05T08:05:15.632Z,20.61
2023-05-05T08:06:15.559Z,20.64
2023-05-05T08:07:15.795Z,20.66
2023-05-05T08:08:15.710Z,20.42
2023-05-05T08:09:15.576Z,20.38
2023-05-05T08:10:15.518Z,20.47
2023-05-05T08:11:15.549Z,20.59
2023-05-05T08:12:15.505Z,20.73
2023-05-05T08:13:15.530Z,20.72
2023-05-05T08:14:15.499Z,20.74
2023-05-05T08:15:15.478Z,20.87
2023-05-05T08:16:15.547Z,20.91
2023-05-05T08:17:16.393Z,20.95
2023-05-05T08:18:15.423Z,21.07
2023-05-05T08:19:27.519Z,21.17
2023-05-05T08:20:16.452Z,21.24
2023-05-05T08:21:15.413Z,21.22
2023-05-05T08:22:15.729Z,21.17
2023-05-05T08:23:15.423Z,21.07
2023-05-05T08:24:15.346Z,21.12
2023-05-05T08:25:15.368Z,21.07
2023-05-05T08:26:15.511Z,21.19
2023-05-05T08:27:15.335Z,21.17
2023-05-05T08:28:15.412Z,21.16
2023-05-05T08:29:15.421Z,21.21
2023-05-05T08:30:15.290Z,21.17
2023-05-05T08:31:15.313Z,21.16
2023-05-05T08:32:15.256Z,21.28
2023-05-05T08:33:15.280Z,21.35
2023-05-05T08:34:15.250Z,21.35
2023-05-05T08:35:15.312Z,21.38
2023-05-05T08:36:15.490Z,21.40
2023-05-05T08:37:15.224Z,21.37
2023-05-05T08:38:15.192Z,21.34
2023-05-05T08:39:15.231Z,21.44
2023-05-05T08:40:15.190Z,21.54
2023-05-05T08:41:15.181Z,21.64
2023-05-05T08:42:25.487Z,21.74
2023-05-05T08:43:16.144Z,21.83
2023-05-05T08:44:15.142Z,21.96
2023-05-05T08:45:15.117Z,22.07
2023-05-05T08:46:15.195Z,22.21
2023-05-05T08:47:15.119Z,22.31
2023-05-05T08:48:15.181Z,22.39
2023-05-05T08:49:15.360Z,22.49
2023-05-05T08:50:15.095Z,22.52
2023-05-05T08:51:15.072Z,22.55
2023-05-05T08:52:15.064Z,22.58
2023-05-05T08:53:15.056Z,22.60
2023-05-05T08:54:15.094Z,22.60
2023-05-05T08:55:15.084Z,22.64
2023-05-05T08:56:14.978Z,22.72
2023-05-05T08:57:14.991Z,22.77
2023-05-05T08:58:14.992Z,22.83
2023-05-05T08:59:14.986Z,22.83
2023-05-05T09:00:14.985Z,22.73
2023-05-05T09:01:14.980Z,22.33
2023-05-05T09:02:14.936Z,22.02
2023-05-05T09:03:15.174Z,21.56
2023-05-05T09:04:14.920Z,21.56
2023-05-05T09:05:14.997Z,21.40
2023-05-05T09:06:14.909Z,21.44
2023-05-05T09:07:14.901Z,21.56
2023-05-05T09:08:14.974Z,21.58
2023-05-05T09:09:14.960Z,21.59
2023-05-05T09:10:14.871Z,21.71
2023-05-05T09:11:14.918Z,21.82
2023-05-05T09:12:14.791Z,21.92
2023-05-05T09:13:14.847Z,21.92
2023-05-05T09:14:14.791Z,22.02
2023-05-05T09:15:14.903Z,22.00
2023-05-05T09:16:14.785Z,22.02
2023-05-05T09:17:14.770Z,21.90
2023-05-05T09:18:14.733Z,21.79
2023-05-05T09:19:14.740Z,21.69
2023-05-05T09:20:14.784Z,21.64
2023-05-05T09:21:14.731Z,21.53
2023-05-05T09:22:14.825Z,21.47
2023-05-05T09:23:14.703Z,21.42
2023-05-05T09:24:14.723Z,21.58
2023-05-05T09:25:14.670Z,21.62
2023-05-05T09:26:14.703Z,21.72
2023-05-05T09:27:14.669Z,21.82
2023-05-05T09:28:14.641Z,21.72
2023-05-05T09:29:14.665Z,21.71
2023-05-05T09:30:14.736Z,21.72
2023-05-05T09:31:14.666Z,21.72
2023-05-05T09:32:14.561Z,21.77
2023-05-05T09:33:14.800Z,21.86
2023-05-05T09:34:14.545Z,22.03
2023-05-05T09:35:14.573Z,22.21
2023-05-05T09:36:14.577Z,22.35
2023-05-05T09:37:14.891Z,22.46
2023-05-05T09:38:14.531Z,22.47
2023-05-05T09:39:14.570Z,22.43
2023-05-05T09:40:14.482Z,22.55
2023-05-05T09:41:14.505Z,22.64
2023-05-05T09:42:14.526Z,22.72
2023-05-05T09:43:14.482Z,22.83
2023-05-05T09:44:14.456Z,22.92
2023-05-05T09:45:14.455Z,23.02
2023-05-05T09:46:14.432Z,23.02
2023-05-05T09:47:22.349Z,23.05
2023-05-05T09:48:15.447Z,23.10
2023-05-05T09:49:14.452Z,23.07
2023-05-05T09:50:14.666Z,23.10
2023-05-05T09:51:14.396Z,23.23
2023-05-05T09:52:14.360Z,23.36
2023-05-05T09:53:14.390Z,23.53
2023-05-05T09:54:14.336Z,23.69
2023-05-05T09:55:14.711Z,23.84
2023-05-05T09:56:14.285Z,23.88
2023-05-05T09:57:14.310Z,23.91
2023-05-05T09:58:14.377Z,23.90
2023-05-05T09:59:14.314Z,23.87
2023-05-05T10:00:14.306Z,23.85
2023-05-05T10:01:14.329Z,23.87
2023-05-05T10:02:14.264Z,23.78
2023-05-05T10:03:14.254Z,23.68
2023-05-05T10:04:14.203Z,23.60
2023-05-05T10:05:14.367Z,23.58
2023-05-05T10:06:14.234Z,23.53
2023-05-05T10:07:14.314Z,23.51
2023-05-05T10:08:14.211Z,23.48
2023-05-05T10:09:14.198Z,23.48
2023-05-05T10:10:14.577Z,23.54
2023-05-05T10:11:14.591Z,23.47
2023-05-05T10:12:15.623Z,23.23
2023-05-05T10:13:14.185Z,23.16
2023-05-05T10:14:14.149Z,23.27
2023-05-05T10:15:14.101Z,23.40
2023-05-05T10:16:14.165Z,23.55
2023-05-05T10:17:14.099Z,23.73
2023-05-05T10:18:14.110Z,23.91
2023-05-05T10:19:14.129Z,24.03
2023-05-05T10:20:14.053Z,24.16
2023-05-05T10:21:14.020Z,24.31
2023-05-05T10:22:14.097Z,24.43
2023-05-05T10:23:14.004Z,24.55
2023-05-05T10:24:14.033Z,24.71
2023-05-05T10:25:13.964Z,24.81
2023-05-05T10:26:14.026Z,24.91
2023-05-05T10:27:13.955Z,25.08
2023-05-05T10:28:14.003Z,25.14
2023-05-05T10:29:13.951Z,25.06
2023-05-05T10:30:14.445Z,24.88
2023-05-05T10:31:24.200Z,24.71
2023-05-05T10:32:40.664Z,24.13
2023-05-05T10:33:31.177Z,23.78
2023-05-05T10:34:15.101Z,23.48
2023-05-05T10:35:13.882Z,23.20
2023-05-05T10:36:13.925Z,23.00
2023-05-05T10:37:13.856Z,22.91
2023-05-05T10:38:14.169Z,22.90
2023-05-05T10:39:13.861Z,22.94
2023-05-05T10:40:13.821Z,22.85
2023-05-05T10:41:13.799Z,22.76
2023-05-05T10:42:13.839Z,22.80
2023-05-05T10:43:13.830Z,22.79
2023-05-05T10:44:13.785Z,22.52
2023-05-05T10:45:13.859Z,22.49
2023-05-05T10:46:13.801Z,22.39
2023-05-05T10:47:13.827Z,22.42
2023-05-05T10:48:13.885Z,22.47
2023-05-05T10:49:13.746Z,22.55
2023-05-05T10:50:13.723Z,22.60
2023-05-05T10:51:21.175Z,22.60
2023-05-05T10:52:15.297Z,22.61
2023-05-05T10:53:13.720Z,22.60
2023-05-05T10:54:13.769Z,22.57
2023-05-05T10:55:13.689Z,22.60
2023-05-05T10:56:13.742Z,22.43
2023-05-05T10:57:13.637Z,22.33
2023-05-05T10:58:13.653Z,22.39
2023-05-05T10:59:13.594Z,22.49
2023-05-05T11:00:15.159Z,22.60
2023-05-05T11:01:13.673Z,22.68
2023-05-05T11:02:13.582Z,22.79
2023-05-05T11:03:13.652Z,22.88
2023-05-05T11:04:13.590Z,22.95
2023-05-05T11:05:13.553Z,23.04
2023-05-05T11:06:13.594Z,23.13
2023-05-05T11:07:15.049Z,23.27
2023-05-05T11:08:13.539Z,23.46
2023-05-05T11:09:13.504Z,23.66
2023-05-05T11:10:13.725Z,23.83
2023-05-05T11:11:13.897Z,23.91
2023-05-05T11:12:13.602Z,23.76
2023-05-05T11:13:13.870Z,23.72
2023-05-05T11:14:13.543Z,23.79
2023-05-05T11:15:13.469Z,23.90
2023-05-05T11:16:13.491Z,23.91
2023-05-05T11:17:13.470Z,24.09
2023-05-05T11:18:13.402Z,24.22
2023-05-05T11:19:13.464Z,24.37
2023-05-05T11:20:13.469Z,24.55
2023-05-05T11:21:13.437Z,24.61
2023-05-05T11:22:13.464Z,24.57
2023-05-05T11:23:16.570Z,24.58
2023-05-05T11:24:13.480Z,24.53
2023-05-05T11:25:13.650Z,24.49
2023-05-05T11:26:13.547Z,24.52
2023-05-05T11:27:13.502Z,24.57
2023-05-05T11:28:13.416Z,24.55
2023-05-05T11:29:13.388Z,24.55
2023-05-05T11:30:13.530Z,24.57
2023-05-05T11:31:13.822Z,24.57
2023-05-05T11:32:13.426Z,24.50
2023-05-05T11:33:13.290Z,24.31
2023-05-05T11:34:13.435Z,24.18
2023-05-05T11:35:13.383Z,23.85
2023-05-05T11:36:13.237Z,23.51
2023-05-05T11:37:13.492Z,23.46
2023-05-05T11:38:13.461Z,23.40
2023-05-05T11:39:13.157Z,23.36
2023-05-05T11:40:13.623Z,23.31
2023-05-05T11:41:13.157Z,23.22
2023-05-05T11:42:13.748Z,23.16
2023-05-05T11:43:13.150Z,23.04
2023-05-05T11:44:13.586Z,22.94
2023-05-05T11:45:13.145Z,22.82
2023-05-05T11:46:13.183Z,22.65
2023-05-05T11:47:13.076Z,22.51
2023-05-05T11:48:13.138Z,22.40
2023-05-05T11:49:13.116Z,22.28
2023-05-05T11:50:13.061Z,22.14
2023-05-05T11:51:13.030Z,22.06
2023-05-05T11:52:13.081Z,21.99
2023-05-05T11:53:13.201Z,21.79
2023-05-05T11:54:13.019Z,21.65
2023-05-05T11:55:12.976Z,21.52
2023-05-05T11:56:12.976Z,21.38
2023-05-05T11:57:13.013Z,21.25
2023-05-05T11:58:12.970Z,21.13
2023-05-05T11:59:12.959Z,20.89
2023-05-05T12:00:12.988Z,20.61
2023-05-05T12:01:12.953Z,20.31
2023-05-05T12:02:13.542Z,19.88
2023-05-05T12:03:13.016Z,19.62
2023-05-05T12:04:13.181Z,19.36
2023-05-05T12:05:12.863Z,18.98
2023-05-05T12:06:12.957Z,18.58
2023-05-05T12:07:14.359Z,18.26
2023-05-05T12:08:12.935Z,17.84
2023-05-05T12:09:12.982Z,17.40
2023-05-05T12:10:12.880Z,17.03
2023-05-05T12:11:12.815Z,16.88
2023-05-05T12:12:12.993Z,16.82
2023-05-05T12:13:12.940Z,16.85
2023-05-05T12:14:12.909Z,16.91
2023-05-05T12:15:13.337Z,16.96
2023-05-05T12:16:12.829Z,16.97
2023-05-05T12:17:12.728Z,16.94
2023-05-05T12:18:12.819Z,16.97
2023-05-05T12:19:12.764Z,16.98
2023-05-05T12:20:13.214Z,17.01
2023-05-05T12:21:12.665Z,17.03
2023-05-05T12:22:12.688Z,17.06
2023-05-05T12:23:12.667Z,17.08
2023-05-05T12:24:12.650Z,17.14
2023-05-05T12:25:12.670Z,17.16
2023-05-05T12:26:12.719Z,17.22
2023-05-05T12:27:12.636Z,17.26
2023-05-05T12:28:12.660Z,17.31
2023-05-05T12:29:12.632Z,17.31
2023-05-05T12:30:12.590Z,17.25
2023-05-05T12:31:12.621Z,17.21
2023-05-05T12:32:12.759Z,17.25
2023-05-05T12:33:12.535Z,17.22
2023-05-05T12:34:12.763Z,17.07
2023-05-05T12:35:12.625Z,17.08
2023-05-05T12:36:12.640Z,17.16
2023-05-05T12:37:12.479Z,17.25
2023-05-05T12:38:12.500Z,17.37
2023-05-05T12:39:12.486Z,17.54
2023-05-05T12:40:12.661Z,17.66
2023-05-05T12:41:12.464Z,17.75
2023-05-05T12:42:12.993Z,17.89
2023-05-05T12:43:12.878Z,18.05
2023-05-05T12:44:12.423Z,18.27
2023-05-05T12:45:12.386Z,18.51
2023-05-05T12:46:12.529Z,18.78
2023-05-05T12:47:12.354Z,19.06
2023-05-05T12:48:12.386Z,19.32
2023-05-05T12:49:12.454Z,19.50
2023-05-05T12:50:12.440Z,19.71
2023-05-05T12:51:12.331Z,19.96
2023-05-05T12:52:12.347Z,20.18
2023-05-05T12:53:12.448Z,20.39
2023-05-05T12:54:13.284Z,20.58
2023-05-05T12:55:12.292Z,20.59